createdAt,value
2023-03-08T00:01:28.063Z,98448.09
2023-03-08T00:03:58.892Z,98449.28
2023-03-08T00:06:28.603Z,98455.34
2023-03-08T00:08:59.363Z,98478.34
2023-03-08T00:11:29.744Z,98457.34
2023-03-08T00:13:58.973Z,98473.06
2023-03-08T00:16:27.743Z,98487.66
2023-03-08T00:18:56.587Z,98498.69
2023-03-08T00:21:25.533Z,98492.81
2023-03-08T00:23:55.040Z,98525.31
2023-03-08T00:26:24.090Z,98561.28
2023-03-08T00:28:53.772Z,98561.28
2023-03-08T00:31:25.345Z,98537.50
2023-03-08T00:33:56.317Z,98571.72
2023-03-08T00:36:25.514Z,98573.41
2023-03-08T00:38:54.672Z,98603.94
2023-03-08T00:41:24.098Z,98597.19
2023-03-08T00:43:52.759Z,98518.97
2023-03-08T00:46:21.554Z,98524.03
2023-03-08T00:48:50.216Z,98534.31
2023-03-08T00:51:20.946Z,98630.59
2023-03-08T00:53:49.826Z,98630.56
2023-03-08T00:56:18.853Z,98623.22
2023-03-08T00:58:47.542Z,98662.75
2023-03-08T01:01:20.525Z,98660.38
2023-03-08T01:03:50.828Z,98698.16
2023-03-08T01:06:19.693Z,98665.69
2023-03-08T01:08:48.183Z,98712.88
2023-03-08T01:11:27.938Z,98690.69
2023-03-08T01:13:59.474Z,98690.81
2023-03-08T01:16:31.556Z,98725.06
2023-03-08T01:19:01.920Z,98728.56
2023-03-08T01:21:32.189Z,98751.91
2023-03-08T01:24:01.266Z,98775.97
2023-03-08T01:26:30.147Z,98776.97
2023-03-08T01:28:59.066Z,98765.25
2023-03-08T01:31:32.158Z,98790.09
2023-03-08T01:34:01.659Z,98814.34
2023-03-08T01:36:33.457Z,98828.06
2023-03-08T01:39:02.617Z,98837.59
2023-03-08T01:41:33.367Z,98733.75
2023-03-08T01:44:02.731Z,98838.72
2023-03-08T01:46:38.387Z,98645.31
2023-03-08T01:49:20.250Z,98867.78
2023-03-08T01:52:10.038Z,98883.09
2023-03-08T01:54:44.640Z,98874.69
2023-03-08T01:57:16.948Z,98906.47
2023-03-08T01:59:49.804Z,98847.66
2023-03-08T02:02:23.404Z,98907.41
2023-03-08T02:04:52.416Z,98883.59
2023-03-08T02:07:21.661Z,98916.09
2023-03-08T02:09:51.733Z,98889.66
2023-03-08T02:12:23.683Z,98876.88
2023-03-08T02:14:52.370Z,98928.22
2023-03-08T02:17:24.043Z,98906.84
2023-03-08T02:20:11.466Z,98951.38
2023-03-08T02:22:41.645Z,98857.72
2023-03-08T02:25:17.415Z,98970.25
2023-03-08T02:27:46.831Z,98885.00
2023-03-08T02:30:18.396Z,98949.72
2023-03-08T02:32:47.303Z,98942.09
2023-03-08T02:35:16.437Z,98982.44
2023-03-08T02:37:45.898Z,98976.38
2023-03-08T02:40:15.414Z,99008.88
2023-03-08T02:42:44.136Z,98987.50
2023-03-08T02:45:13.166Z,98979.03
2023-03-08T02:47:43.115Z,99028.78
2023-03-08T02:50:12.224Z,99013.28
2023-03-08T02:52:40.901Z,99037.31
2023-03-08T02:55:10.156Z,99051.94
2023-03-08T02:57:39.037Z,99034.03
2023-03-08T03:00:09.208Z,99041.81
2023-03-08T03:02:38.256Z,99077.75
2023-03-08T03:05:11.792Z,98996.72
2023-03-08T03:07:44.143Z,99080.47
2023-03-08T03:10:20.042Z,99094.38
2023-03-08T03:12:48.790Z,99104.63
2023-03-08T03:15:21.169Z,99027.75
2023-03-08T03:17:54.346Z,99120.97
2023-03-08T03:20:23.308Z,99089.34
2023-03-08T03:22:52.035Z,99120.91
2023-03-08T03:25:25.377Z,99151.81
2023-03-08T03:27:56.067Z,99126.16
2023-03-08T03:30:27.921Z,99170.66
2023-03-08T03:32:57.641Z,99146.63
2023-03-08T03:35:31.338Z,99165.34
2023-03-08T03:38:00.646Z,99149.75
2023-03-08T03:40:29.776Z,99161.84
2023-03-08T03:43:05.386Z,99204.53
2023-03-08T03:45:34.325Z,99189.13
2023-03-08T03:48:03.462Z,99217.25
2023-03-08T03:50:32.783Z,99215.09
2023-03-08T03:53:10.284Z,99200.75
2023-03-08T03:55:40.192Z,99233.34
2023-03-08T03:58:09.370Z,99229.09
2023-03-08T04:00:38.544Z,99218.75
2023-03-08T04:03:17.746Z,99243.50
2023-03-08T04:05:46.799Z,99253.78
2023-03-08T04:08:15.815Z,99247.13
2023-03-08T04:10:44.635Z,99237.41
2023-03-08T04:13:13.696Z,99263.94
2023-03-08T04:15:44.030Z,99285.44
2023-03-08T04:18:14.700Z,99293.91
2023-03-08T04:20:47.396Z,99221.91
2023-03-08T04:23:17.314Z,99281.69
2023-03-08T04:25:48.853Z,99288.59
2023-03-08T04:28:18.373Z,99296.84
2023-03-08T04:30:50.036Z,99307.97
2023-03-08T04:33:19.777Z,99333.56
2023-03-08T04:35:51.074Z,99318.03
2023-03-08T04:38:22.663Z,99334.50
2023-03-08T04:41:03.273Z,99345.50
2023-03-08T04:43:38.732Z,99339.25
2023-03-08T04:46:09.181Z,99341.19
2023-03-08T04:48:39.993Z,99345.41
2023-03-08T04:51:11.593Z,99359.06
2023-03-08T04:53:42.435Z,99387.72
2023-03-08T04:56:12.479Z,99373.19
2023-03-08T04:58:41.569Z,99357.75
2023-03-08T05:01:22.993Z,99352.78
2023-03-08T05:03:54.212Z,99389.81
2023-03-08T05:06:29.746Z,99422.59
2023-03-08T05:08:59.214Z,99397.88
2023-03-08T05:11:30.019Z,99420.03
2023-03-08T05:14:00.572Z,99420.19
2023-03-08T05:16:30.457Z,99425.28
2023-03-08T05:18:59.363Z,99432.31
2023-03-08T05:21:33.392Z,99442.75
2023-03-08T05:24:03.522Z,99460.69
2023-03-08T05:26:35.971Z,99470.84
2023-03-08T05:29:07.038Z,99444.19
2023-03-08T05:31:38.553Z,99446.94
2023-03-08T05:34:11.853Z,99485.56
2023-03-08T05:36:43.977Z,99459.94
2023-03-08T05:39:13.299Z,99481.50
2023-03-08T05:41:58.284Z,99466.91
2023-03-08T05:44:31.773Z,99479.59
2023-03-08T05:47:01.413Z,99483.31
2023-03-08T05:49:30.630Z,99515.44
2023-03-08T05:51:59.754Z,99514.44
2023-03-08T05:54:30.169Z,99471.44
2023-03-08T05:57:03.573Z,99444.41
2023-03-08T05:59:32.911Z,99526.72
2023-03-08T06:02:04.745Z,99546.75
2023-03-08T06:04:38.631Z,99512.06
2023-03-08T06:07:07.525Z,99563.69
2023-03-08T06:09:40.810Z,99578.13
2023-03-08T06:12:14.144Z,99494.97
2023-03-08T06:14:42.885Z,99556.50
2023-03-08T06:17:13.143Z,99586.56
2023-03-08T06:19:47.135Z,99598.88
2023-03-08T06:22:17.923Z,99574.00
2023-03-08T06:24:53.564Z,99560.31
2023-03-08T06:27:32.031Z,99592.41
2023-03-08T06:30:04.065Z,99582.03
2023-03-08T06:32:36.235Z,99610.28
2023-03-08T06:35:06.649Z,99616.34
2023-03-08T06:37:39.082Z,99613.06
2023-03-08T06:40:10.008Z,99654.25
2023-03-08T06:42:41.479Z,99625.00
2023-03-08T06:45:14.808Z,99621.41
2023-03-08T06:47:43.638Z,99519.34
2023-03-08T06:50:13.689Z,99635.78
2023-03-08T06:52:45.500Z,99639.34
2023-03-08T06:55:15.992Z,99645.56
2023-03-08T06:57:44.849Z,99574.44
2023-03-08T07:00:14.469Z,99578.66
2023-03-08T07:02:43.367Z,99682.34
2023-03-08T07:05:12.168Z,99700.16
2023-03-08T07:07:41.039Z,99602.41
2023-03-08T07:10:17.264Z,99685.59
2023-03-08T07:12:49.104Z,99629.91
2023-03-08T07:15:23.552Z,99720.78
2023-03-08T07:17:56.378Z,99687.16
2023-03-08T07:20:28.308Z,99683.72
2023-03-08T07:22:57.861Z,99646.78
2023-03-08T07:25:26.556Z,99726.28
2023-03-08T07:27:55.459Z,99711.81
2023-03-08T07:30:24.355Z,99691.28
2023-03-08T07:32:55.129Z,99666.34
2023-03-08T07:35:24.068Z,99720.16
2023-03-08T07:37:53.453Z,99728.34
2023-03-08T07:40:22.307Z,99753.31
2023-03-08T07:42:51.094Z,99736.50
2023-03-08T07:45:49.207Z,99765.84
2023-03-08T07:48:17.904Z,99733.97
2023-03-08T07:50:46.825Z,99722.78
2023-03-08T07:53:15.927Z,99774.16
2023-03-08T07:55:44.923Z,99735.94
2023-03-08T07:58:14.336Z,99684.38
2023-03-08T08:00:43.078Z,99769.81
2023-03-08T08:03:11.822Z,99775.19
2023-03-08T08:05:40.678Z,99781.84
2023-03-08T08:08:10.918Z,99760.53
2023-03-08T08:10:39.821Z,99798.44
2023-03-08T08:13:08.961Z,99772.84
2023-03-08T08:15:37.774Z,99773.75
2023-03-08T08:18:06.536Z,99784.31
2023-03-08T08:20:35.375Z,99807.84
2023-03-08T08:23:07.335Z,99827.19
2023-03-08T08:25:41.352Z,99798.31
2023-03-08T08:28:10.078Z,99755.63
2023-03-08T08:30:38.941Z,99822.78
2023-03-08T08:33:07.841Z,99830.19
2023-03-08T08:35:43.041Z,99801.88
2023-03-08T08:38:12.551Z,99832.63
2023-03-08T08:40:41.613Z,99819.66
2023-03-08T08:43:10.392Z,99862.25
2023-03-08T08:45:47.432Z,99867.06
2023-03-08T08:48:16.699Z,99791.41
2023-03-08T08:50:45.635Z,99810.38
2023-03-08T08:53:14.745Z,99875.63
2023-03-08T08:55:45.543Z,99867.34
2023-03-08T08:58:16.518Z,99881.47
2023-03-08T09:00:45.980Z,99895.06
2023-03-08T09:03:14.634Z,99919.09
2023-03-08T09:05:46.060Z,99918.94
2023-03-08T09:08:14.786Z,99901.25
2023-03-08T09:10:43.579Z,99902.31
2023-03-08T09:13:13.011Z,99925.56
2023-03-08T09:15:41.870Z,99825.88
2023-03-08T09:18:10.710Z,99916.75
2023-03-08T09:20:39.493Z,99918.53
2023-03-08T09:23:09.319Z,99949.75
2023-03-08T09:25:38.315Z,99949.84
2023-03-08T09:28:07.018Z,99942.44
2023-03-08T09:30:35.864Z,99978.91
2023-03-08T09:33:04.994Z,99970.22
2023-03-08T09:35:33.526Z,99898.38
2023-03-08T09:38:02.846Z,100002.38
2023-03-08T09:40:49.239Z,99992.25
2023-03-08T09:43:31.666Z,100005.22
2023-03-08T09:46:01.271Z,99965.03
2023-03-08T09:48:31.962Z,100027.13
2023-03-08T09:51:08.492Z,100016.69
2023-03-08T09:53:44.770Z,100046.25
2023-03-08T09:56:39.880Z,100049.72
2023-03-08T09:59:22.231Z,100022.38
2023-03-08T10:02:14.410Z,100068.06
2023-03-08T10:05:11.414Z,100051.03
2023-03-08T10:07:50.844Z,100097.84
2023-03-08T10:10:35.071Z,100086.66
2023-03-08T10:13:07.029Z,100091.03
2023-03-08T10:15:46.812Z,100094.44
2023-03-08T10:18:40.190Z,100109.25
2023-03-08T10:21:14.411Z,100107.56
2023-03-08T10:23:43.386Z,100095.59
2023-03-08T10:26:14.308Z,100105.19
2023-03-08T10:28:43.249Z,100132.00
2023-03-08T10:31:26.304Z,100103.66
2023-03-08T10:34:18.403Z,100119.13
2023-03-08T10:36:49.664Z,100128.56
2023-03-08T10:39:19.414Z,100130.44
2023-03-08T10:41:55.598Z,100078.00
2023-03-08T10:44:43.540Z,100179.69
2023-03-08T10:47:31.013Z,100115.94
2023-03-08T10:50:21.147Z,100188.56
2023-03-08T10:52:51.779Z,100164.56
2023-03-08T10:55:27.883Z,100110.28
2023-03-08T10:58:00.359Z,100170.78
2023-03-08T11:00:40.160Z,100210.53
2023-03-08T11:03:16.004Z,100186.44
2023-03-08T11:05:56.939Z,100221.84
2023-03-08T11:08:51.621Z,100228.78
2023-03-08T11:11:20.358Z,100240.94
2023-03-08T11:13:53.426Z,100182.22
2023-03-08T11:17:17.616Z,100246.13
2023-03-08T11:20:14.489Z,100261.75
2023-03-08T11:23:10.293Z,100263.47
2023-03-08T11:26:10.457Z,100242.03
2023-03-08T11:29:15.446Z,100280.06
2023-03-08T11:32:06.102Z,100287.00
2023-03-08T11:35:02.532Z,100126.41
2023-03-08T11:37:57.977Z,100286.16
2023-03-08T11:40:30.543Z,100292.19
2023-03-08T11:43:22.799Z,100296.56
2023-03-08T11:46:20.547Z,100298.34
2023-03-08T11:48:58.874Z,100311.31
2023-03-08T11:51:37.383Z,100321.69
2023-03-08T11:54:14.678Z,100323.44
2023-03-08T11:56:57.741Z,100330.38
2023-03-08T11:59:39.958Z,100295.81
2023-03-08T12:02:08.866Z,100338.16
2023-03-08T12:04:48.940Z,100344.22
2023-03-08T12:07:41.593Z,100360.63
2023-03-08T12:10:30.158Z,100333.84
2023-03-08T12:13:19.455Z,100351.09
2023-03-08T12:16:11.073Z,100341.56
2023-03-08T12:19:00.941Z,100374.44
2023-03-08T12:22:23.342Z,100383.91
2023-03-08T12:25:16.797Z,100373.50
2023-03-08T12:27:49.337Z,100391.63
2023-03-08T12:30:35.050Z,100400.22
2023-03-08T12:33:06.347Z,100361.22
2023-03-08T12:35:50.126Z,100303.22
2023-03-08T12:38:18.925Z,100415.69
2023-03-08T12:40:53.281Z,100384.47
2023-03-08T12:43:22.185Z,100425.97
2023-03-08T12:46:10.725Z,100425.03
2023-03-08T12:48:45.308Z,100436.22
2023-03-08T12:51:14.108Z,100443.06
2023-03-08T12:53:51.759Z,100453.41
2023-03-08T12:56:25.247Z,100417.75
2023-03-08T12:58:55.793Z,100478.31
2023-03-08T13:01:35.804Z,100480.03
2023-03-08T13:04:42.905Z,100484.25
2023-03-08T13:07:35.324Z,100459.88
2023-03-08T13:10:20.771Z,100468.47
2023-03-08T13:12:50.854Z,100508.28
2023-03-08T13:15:25.213Z,100482.25
2023-03-08T13:18:00.397Z,100524.63
2023-03-08T13:20:42.047Z,100528.94
2023-03-08T13:23:16.761Z,100543.63
2023-03-08T13:26:06.727Z,100543.59
2023-03-08T13:28:47.027Z,100541.00
2023-03-08T13:31:23.338Z,100527.03
2023-03-08T13:33:56.166Z,100539.13
2023-03-08T13:36:33.370Z,100557.28
2023-03-08T13:39:08.926Z,100572.91
2023-03-08T13:41:44.679Z,100492.09
2023-03-08T13:44:27.227Z,100584.13
2023-03-08T13:46:59.325Z,100559.78
2023-03-08T13:49:42.804Z,100568.34
2023-03-08T13:52:22.971Z,100569.97
2023-03-08T13:54:58.385Z,100579.41
2023-03-08T13:57:34.246Z,100594.97
2023-03-08T14:00:21.720Z,100617.38
2023-03-08T14:02:52.225Z,100605.22
2023-03-08T14:05:24.517Z,100609.59
2023-03-08T14:08:03.952Z,100603.44
2023-03-08T14:10:45.018Z,100610.34
2023-03-08T14:13:43.394Z,100647.50
2023-03-08T14:16:44.648Z,100620.44
2023-03-08T14:19:39.251Z,100648.00
2023-03-08T14:22:17.884Z,100633.19
2023-03-08T14:24:57.026Z,100645.22
2023-03-08T14:27:39.508Z,100678.97
2023-03-08T14:30:16.208Z,100567.78
2023-03-08T14:33:01.220Z,100694.47
2023-03-08T14:35:31.932Z,100684.81
2023-03-08T14:38:01.474Z,100679.44
2023-03-08T14:40:32.128Z,100650.84
2023-03-08T14:43:08.188Z,100693.38
2023-03-08T14:45:41.226Z,100720.47
2023-03-08T14:48:24.764Z,100718.00
2023-03-08T14:50:56.466Z,100728.44
2023-03-08T14:53:53.705Z,100696.44
2023-03-08T14:56:22.503Z,100674.72
2023-03-08T14:58:52.916Z,100729.50
2023-03-08T15:01:30.712Z,100738.16
2023-03-08T15:04:00.260Z,100705.91
2023-03-08T15:06:36.038Z,100651.16
2023-03-08T15:09:09.637Z,100752.75
2023-03-08T15:11:38.473Z,100709.25
2023-03-08T15:14:07.224Z,100757.00
2023-03-08T15:16:36.362Z,100737.00
2023-03-08T15:19:05.156Z,100762.13
2023-03-08T15:21:35.662Z,100768.22
2023-03-08T15:24:04.737Z,100751.66
2023-03-08T15:26:33.640Z,100693.34
2023-03-08T15:29:05.969Z,100793.28
2023-03-08T15:31:34.787Z,100801.00
2023-03-08T15:34:04.535Z,100728.94
2023-03-08T15:36:36.354Z,100774.19
2023-03-08T15:39:05.246Z,100826.97
2023-03-08T15:41:34.201Z,100757.44
2023-03-08T15:44:03.823Z,100675.66
2023-03-08T15:46:32.727Z,100799.13
2023-03-08T15:49:01.356Z,100802.56
2023-03-08T15:51:36.391Z,100842.50
2023-03-08T15:54:07.073Z,100807.63
2023-03-08T15:56:35.975Z,100810.25
2023-03-08T15:59:04.834Z,100751.84
2023-03-08T16:01:34.122Z,100833.59
2023-03-08T16:04:02.966Z,100843.19
2023-03-08T16:06:32.695Z,100824.94
2023-03-08T16:09:01.406Z,100831.84
2023-03-08T16:11:32.327Z,100824.88
2023-03-08T16:14:01.910Z,100830.88
2023-03-08T16:16:44.368Z,100870.03
2023-03-08T16:19:15.330Z,100837.72
2023-03-08T16:21:43.867Z,100885.47
2023-03-08T16:24:12.838Z,100854.13
2023-03-08T16:26:41.773Z,100869.41
2023-03-08T16:29:10.757Z,100901.56
2023-03-08T16:31:39.438Z,100907.56
2023-03-08T16:34:08.422Z,100917.03
2023-03-08T16:36:36.879Z,100886.44
2023-03-08T16:39:07.625Z,100892.44
2023-03-08T16:41:37.962Z,100916.75
2023-03-08T16:44:07.735Z,100886.16
2023-03-08T16:46:37.424Z,100896.47
2023-03-08T16:49:06.426Z,100897.34
2023-03-08T16:51:38.109Z,100900.72
2023-03-08T16:54:07.295Z,100932.75
2023-03-08T16:56:36.482Z,100930.06
2023-03-08T16:59:05.549Z,100968.28
2023-03-08T17:01:34.728Z,100945.41
2023-03-08T17:04:04.053Z,100966.25
2023-03-08T17:06:33.794Z,100955.63
2023-03-08T17:09:03.399Z,100969.47
2023-03-08T17:11:35.152Z,100981.63
2023-03-08T17:14:09.773Z,100982.38
2023-03-08T17:16:40.358Z,101001.38
2023-03-08T17:19:10.309Z,101011.00
2023-03-08T17:21:39.629Z,100977.03
2023-03-08T17:24:12.146Z,100998.78
2023-03-08T17:26:49.201Z,101005.56
2023-03-08T17:29:18.703Z,100974.09
2023-03-08T17:31:48.548Z,100926.06
2023-03-08T17:34:18.463Z,100931.91
2023-03-08T17:36:47.398Z,101031.06
2023-03-08T17:39:16.592Z,101024.88
2023-03-08T17:41:45.490Z,101030.84
2023-03-08T17:44:15.222Z,101002.91
2023-03-08T17:46:43.861Z,101007.16
2023-03-08T17:49:13.936Z,101000.06
2023-03-08T17:51:43.146Z,101001.72
2023-03-08T17:54:12.586Z,101027.72
2023-03-08T17:56:41.809Z,100996.94
2023-03-08T17:59:15.613Z,101013.41
2023-03-08T18:01:45.177Z,101003.41
2023-03-08T18:04:13.985Z,101003.13
2023-03-08T18:06:44.046Z,101043.66
2023-03-08T18:09:17.097Z,101012.69
2023-03-08T18:11:46.152Z,101030.47
2023-03-08T18:14:16.410Z,101044.22
2023-03-08T18:16:46.116Z,100927.06
2023-03-08T18:19:17.131Z,101034.19
2023-03-08T18:21:50.481Z,101004.00
2023-03-08T18:24:25.218Z,101067.34
2023-03-08T18:26:54.937Z,101044.13
2023-03-08T18:29:23.509Z,101040.63
2023-03-08T18:31:53.748Z,101070.94
2023-03-08T18:34:22.508Z,101046.44
2023-03-08T18:36:51.273Z,101054.00
2023-03-08T18:39:20.110Z,101072.84
2023-03-08T18:41:48.947Z,101061.25
2023-03-08T18:44:18.345Z,101060.22
2023-03-08T18:46:46.956Z,101086.25
2023-03-08T18:49:16.624Z,101089.53
2023-03-08T18:51:48.664Z,101080.69
2023-03-08T18:54:21.284Z,101079.47
2023-03-08T18:56:58.128Z,101049.66
2023-03-08T18:59:28.780Z,101077.41
2023-03-08T19:01:57.354Z,101014.25
2023-03-08T19:04:26.826Z,101112.03
2023-03-08T19:06:55.410Z,101115.66
2023-03-08T19:09:24.966Z,101102.94
2023-03-08T19:11:54.148Z,101107.59
2023-03-08T19:14:22.831Z,101096.03
2023-03-08T19:16:51.566Z,101106.25
2023-03-08T19:19:20.496Z,101126.34
2023-03-08T19:21:49.922Z,101144.06
2023-03-08T19:24:20.332Z,101126.34
2023-03-08T19:26:52.058Z,101048.88
2023-03-08T19:29:24.721Z,101149.91
2023-03-08T19:31:56.373Z,101123.50
2023-03-08T19:34:31.973Z,101087.28
2023-03-08T19:37:01.211Z,101170.97
2023-03-08T19:39:32.912Z,101149.72
2023-03-08T19:42:07.557Z,101174.84
2023-03-08T19:44:37.651Z,101152.75
2023-03-08T19:47:07.323Z,101141.91
2023-03-08T19:49:38.513Z,101201.09
2023-03-08T19:52:08.570Z,101180.09
2023-03-08T19:54:37.314Z,101088.16
2023-03-08T19:57:06.513Z,101202.50
2023-03-08T19:59:37.411Z,101215.59
2023-03-08T20:02:08.516Z,101177.41
2023-03-08T20:04:37.314Z,101162.56
2023-03-08T20:07:05.998Z,101175.78
2023-03-08T20:09:34.565Z,101149.44
2023-03-08T20:12:03.235Z,101174.19
2023-03-08T20:14:31.852Z,101195.28
2023-03-08T20:17:02.110Z,101198.13
2023-03-08T20:19:32.500Z,101192.72
2023-03-08T20:22:02.236Z,101171.75
2023-03-08T20:24:31.259Z,101123.66
2023-03-08T20:27:00.131Z,101183.00
2023-03-08T20:29:28.740Z,101063.78
2023-03-08T20:31:58.910Z,101133.38
2023-03-08T20:34:28.387Z,101187.31
2023-03-08T20:36:57.088Z,101072.25
2023-03-08T20:39:25.650Z,101190.75
2023-03-08T20:41:57.472Z,101193.41
2023-03-08T20:44:26.029Z,101160.16
2023-03-08T20:46:54.941Z,101183.81
2023-03-08T20:49:23.575Z,101162.56
2023-03-08T20:51:51.993Z,101136.06
2023-03-08T20:54:20.555Z,101143.78
2023-03-08T20:56:49.553Z,101169.63
2023-03-08T20:59:20.930Z,101157.19
2023-03-08T21:01:50.074Z,101136.53
2023-03-08T21:04:19.197Z,101212.19
2023-03-08T21:06:48.784Z,101169.22
2023-03-08T21:09:17.690Z,101170.59
2023-03-08T21:11:46.230Z,101166.84
2023-03-08T21:14:14.789Z,101177.09
2023-03-08T21:16:44.185Z,101179.78
2023-03-08T21:19:12.795Z,101166.47
2023-03-08T21:21:44.582Z,101204.13
2023-03-08T21:24:18.457Z,101194.75
2023-03-08T21:26:47.214Z,101194.63
2023-03-08T21:29:18.376Z,101213.84
2023-03-08T21:31:51.833Z,101203.84
2023-03-08T21:34:21.526Z,101205.47
2023-03-08T21:36:50.698Z,101188.63
2023-03-08T21:39:20.489Z,101117.94
2023-03-08T21:41:50.488Z,101180.13
2023-03-08T21:44:21.285Z,101200.31
2023-03-08T21:46:52.417Z,101103.50
2023-03-08T21:49:31.268Z,101206.25
2023-03-08T21:52:00.233Z,101192.44
2023-03-08T21:54:30.908Z,101133.78
2023-03-08T21:56:59.906Z,101167.16
2023-03-08T21:59:30.004Z,101178.38
2023-03-08T22:01:59.554Z,101175.75
2023-03-08T22:04:29.719Z,101107.38
2023-03-08T22:07:00.953Z,101205.72
2023-03-08T22:09:29.951Z,101192.44
2023-03-08T22:11:59.896Z,101229.75
2023-03-08T22:14:30.431Z,101224.97
2023-03-08T22:17:01.321Z,101169.16
2023-03-08T22:19:30.206Z,101104.41
2023-03-08T22:21:59.674Z,101213.78
2023-03-08T22:24:28.389Z,101201.94
2023-03-08T22:26:56.978Z,101192.41
2023-03-08T22:29:25.577Z,101199.56
2023-03-08T22:31:54.515Z,101176.06
2023-03-08T22:34:23.495Z,101143.81
2023-03-08T22:36:52.777Z,101161.25
2023-03-08T22:39:21.583Z,101197.81
2023-03-08T22:41:50.339Z,101175.16
2023-03-08T22:44:19.143Z,101175.34
2023-03-08T22:46:48.030Z,101170.03
2023-03-08T22:49:17.189Z,101162.22
2023-03-08T22:51:48.525Z,101155.38
2023-03-08T22:54:19.340Z,101165.75
2023-03-08T22:56:49.894Z,101071.25
2023-03-08T22:59:19.199Z,101175.59
2023-03-08T23:01:48.071Z,101147.84
2023-03-08T23:04:16.790Z,101105.97
2023-03-08T23:06:48.399Z,101175.97
2023-03-08T23:09:17.794Z,101156.97
2023-03-08T23:11:47.898Z,101151.06
2023-03-08T23:14:17.118Z,101113.91
2023-03-08T23:16:47.452Z,101156.06
2023-03-08T23:19:20.338Z,101164.78
2023-03-08T23:21:50.116Z,101140.63
2023-03-08T23:24:19.008Z,101120.50
2023-03-08T23:26:48.281Z,101160.13
2023-03-08T23:29:17.169Z,101126.69
2023-03-08T23:31:47.641Z,101147.03
2023-03-08T23:34:19.138Z,101140.09
2023-03-08T23:36:47.897Z,101127.84
2023-03-08T23:39:16.554Z,101172.56
2023-03-08T23:41:46.044Z,101142.06
2023-03-08T23:44:14.839Z,101177.63
2023-03-08T23:46:46.717Z,101147.31
2023-03-08T23:49:17.737Z,101171.47
2023-03-08T23:51:46.896Z,101154.75
2023-03-08T23:54:15.640Z,101176.59
2023-03-08T23:56:44.462Z,101068.06
2023-03-08T23:59:19.313Z,101173.63
